sensor_id;sensor_type;location;lat;lon;timestamp;P1;durP1;ratioP1;P2;durP2;ratioP2
29026;SDS011;16120;48.608;9.092;2022-10-16T00:00:25;75.65;;;3.90;;
29026;SDS011;16120;48.608;9.092;2022-10-16T00:04:21;81.63;;;4.10;;
29026;SDS011;16120;48.608;9.092;2022-10-16T00:08:16;77.97;;;4.30;;
29026;SDS011;16120;48.608;9.092;2022-10-16T00:12:12;80.37;;;4.43;;
29026;SDS011;16120;48.608;9.092;2022-10-16T00:16:07;78.83;;;4.00;;
29026;SDS011;16120;48.608;9.092;2022-10-16T00:20:05;82.03;;;3.97;;
29026;SDS011;16120;48.608;9.092;2022-10-16T00:24:01;82.50;;;4.03;;
29026;SDS011;16120;48.608;9.092;2022-10-16T00:27:56;77.23;;;4.03;;
29026;SDS011;16120;48.608;9.092;2022-10-16T00:31:51;81.80;;;3.60;;
29026;SDS011;16120;48.608;9.092;2022-10-16T00:35:48;77.10;;;3.60;;
29026;SDS011;16120;48.608;9.092;2022-10-16T00:39:43;79.70;;;4.00;;
29026;SDS011;16120;48.608;9.092;2022-10-16T00:43:39;79.83;;;4.03;;
29026;SDS011;16120;48.608;9.092;2022-10-16T00:47:36;89.03;;;4.00;;
29026;SDS011;16120;48.608;9.092;2022-10-16T00:51:34;78.37;;;4.10;;
29026;SDS011;16120;48.608;9.092;2022-10-16T00:55:30;80.93;;;4.57;;
29026;SDS011;16120;48.608;9.092;2022-10-16T00:59:26;74.70;;;3.63;;
29026;SDS011;16120;48.608;9.092;2022-10-16T01:03:22;86.57;;;4.50;;
29026;SDS011;16120;48.608;9.092;2022-10-16T01:07:23;75.97;;;3.60;;
29026;SDS011;16120;48.608;9.092;2022-10-16T01:11:22;79.67;;;4.30;;
29026;SDS011;16120;48.608;9.092;2022-10-16T01:15:22;77.30;;;4.00;;
29026;SDS011;16120;48.608;9.092;2022-10-16T01:19:20;79.50;;;4.10;;
29026;SDS011;16120;48.608;9.092;2022-10-16T01:23:22;82.90;;;3.80;;
29026;SDS011;16120;48.608;9.092;2022-10-16T01:27:23;81.63;;;4.00;;
29026;SDS011;16120;48.608;9.092;2022-10-16T01:31:21;79.43;;;3.77;;
29026;SDS011;16120;48.608;9.092;2022-10-16T01:35:18;76.10;;;3.80;;
29026;SDS011;16120;48.608;9.092;2022-10-16T01:39:16;83.47;;;3.90;;
29026;SDS011;16120;48.608;9.092;2022-10-16T01:43:14;76.47;;;4.10;;
29026;SDS011;16120;48.608;9.092;2022-10-16T01:47:10;76.03;;;4.20;;
29026;SDS011;16120;48.608;9.092;2022-10-16T01:51:07;78.70;;;3.80;;
29026;SDS011;16120;48.608;9.092;2022-10-16T01:55:03;80.33;;;4.00;;
29026;SDS011;16120;48.608;9.092;2022-10-16T01:59:03;79.70;;;3.90;;
29026;SDS011;16120;48.608;9.092;2022-10-16T02:02:59;83.63;;;4.40;;
29026;SDS011;16120;48.608;9.092;2022-10-16T02:06:56;90.77;;;3.90;;
29026;SDS011;16120;48.608;9.092;2022-10-16T02:10:51;82.43;;;3.97;;
29026;SDS011;16120;48.608;9.092;2022-10-16T02:14:48;78.10;;;3.80;;
29026;SDS011;16120;48.608;9.092;2022-10-16T02:18:43;81.70;;;3.80;;
29026;SDS011;16120;48.608;9.092;2022-10-16T02:22:39;83.80;;;4.07;;
29026;SDS011;16120;48.608;9.092;2022-10-16T02:26:35;92.90;;;4.10;;
29026;SDS011;16120;48.608;9.092;2022-10-16T02:30:34;77.37;;;4.30;;
29026;SDS011;16120;48.608;9.092;2022-10-16T02:34:31;84.57;;;4.30;;
29026;SDS011;16120;48.608;9.092;2022-10-16T02:38:27;82.23;;;4.40;;
29026;SDS011;16120;48.608;9.092;2022-10-16T02:42:27;80.77;;;3.50;;
29026;SDS011;16120;48.608;9.092;2022-10-16T02:46:23;75.70;;;3.90;;
29026;SDS011;16120;48.608;9.092;2022-10-16T02:50:19;82.60;;;3.90;;
29026;SDS011;16120;48.608;9.092;2022-10-16T02:54:14;79.23;;;4.20;;
29026;SDS011;16120;48.608;9.092;2022-10-16T02:58:09;82.88;;;4.47;;
29026;SDS011;16120;48.608;9.092;2022-10-16T03:02:06;80.80;;;4.50;;
29026;SDS011;16120;48.608;9.092;2022-10-16T03:06:01;77.23;;;4.50;;
29026;SDS011;16120;48.608;9.092;2022-10-16T03:09:56;90.15;;;4.13;;
29026;SDS011;16120;48.608;9.092;2022-10-16T03:13:52;79.97;;;3.83;;
29026;SDS011;16120;48.608;9.092;2022-10-16T03:17:48;79.63;;;4.30;;
29026;SDS011;16120;48.608;9.092;2022-10-16T03:21:43;77.47;;;3.77;;
29026;SDS011;16120;48.608;9.092;2022-10-16T03:25:39;76.43;;;3.40;;
29026;SDS011;16120;48.608;9.092;2022-10-16T03:29:34;78.60;;;3.70;;
29026;SDS011;16120;48.608;9.092;2022-10-16T03:33:31;84.60;;;4.23;;
29026;SDS011;16120;48.608;9.092;2022-10-16T03:37:26;78.33;;;3.63;;
29026;SDS011;16120;48.608;9.092;2022-10-16T03:41:21;85.25;;;4.20;;
29026;SDS011;16120;48.608;9.092;2022-10-16T03:45:16;78.97;;;4.07;;
29026;SDS011;16120;48.608;9.092;2022-10-16T03:49:13;78.40;;;4.07;;
29026;SDS011;16120;48.608;9.092;2022-10-16T03:53:08;82.27;;;4.17;;
29026;SDS011;16120;48.608;9.092;2022-10-16T03:57:04;82.15;;;4.78;;
29026;SDS011;16120;48.608;9.092;2022-10-16T04:00:59;83.23;;;4.60;;
29026;SDS011;16120;48.608;9.092;2022-10-16T04:04:55;77.97;;;3.83;;
29026;SDS011;16120;48.608;9.092;2022-10-16T04:08:51;83.57;;;4.03;;
29026;SDS011;16120;48.608;9.092;2022-10-16T04:12:46;79.07;;;5.27;;
29026;SDS011;16120;48.608;9.092;2022-10-16T04:16:41;85.57;;;5.10;;
29026;SDS011;16120;48.608;9.092;2022-10-16T04:20:38;80.67;;;5.07;;
29026;SDS011;16120;48.608;9.092;2022-10-16T04:24:33;82.03;;;4.63;;
29026;SDS011;16120;48.608;9.092;2022-10-16T04:28:28;76.37;;;4.50;;
29026;SDS011;16120;48.608;9.092;2022-10-16T04:32:23;79.70;;;4.20;;
29026;SDS011;16120;48.608;9.092;2022-10-16T04:36:20;80.73;;;4.40;;
29026;SDS011;16120;48.608;9.092;2022-10-16T04:40:15;79.50;;;5.07;;
29026;SDS011;16120;48.608;9.092;2022-10-16T04:44:10;81.67;;;4.27;;
29026;SDS011;16120;48.608;9.092;2022-10-16T04:48:06;74.67;;;4.00;;
29026;SDS011;16120;48.608;9.092;2022-10-16T04:52:02;78.15;;;4.05;;
29026;SDS011;16120;48.608;9.092;2022-10-16T04:55:58;78.60;;;4.23;;
29026;SDS011;16120;48.608;9.092;2022-10-16T04:59:53;75.90;;;3.90;;
29026;SDS011;16120;48.608;9.092;2022-10-16T05:03:48;84.05;;;4.00;;
29026;SDS011;16120;48.608;9.092;2022-10-16T05:07:45;77.80;;;3.97;;
29026;SDS011;16120;48.608;9.092;2022-10-16T05:11:40;79.60;;;3.90;;
29026;SDS011;16120;48.608;9.092;2022-10-16T05:15:35;76.60;;;4.20;;
29026;SDS011;16120;48.608;9.092;2022-10-16T05:19:30;79.60;;;4.20;;
29026;SDS011;16120;48.608;9.092;2022-10-16T05:23:27;87.25;;;5.15;;
29026;SDS011;16120;48.608;9.092;2022-10-16T05:27:22;81.00;;;5.30;;
29026;SDS011;16120;48.608;9.092;2022-10-16T05:31:17;78.90;;;4.67;;
29026;SDS011;16120;48.608;9.092;2022-10-16T05:35:12;76.27;;;4.03;;
29026;SDS011;16120;48.608;9.092;2022-10-16T05:39:09;84.30;;;4.20;;
29026;SDS011;16120;48.608;9.092;2022-10-16T05:43:04;84.73;;;3.87;;
29026;SDS011;16120;48.608;9.092;2022-10-16T05:46:59;75.20;;;4.10;;
29026;SDS011;16120;48.608;9.092;2022-10-16T05:50:58;76.87;;;3.80;;
29026;SDS011;16120;48.608;9.092;2022-10-16T05:54:55;87.03;;;4.33;;
29026;SDS011;16120;48.608;9.092;2022-10-16T05:58:50;80.30;;;4.07;;
29026;SDS011;16120;48.608;9.092;2022-10-16T06:02:46;85.68;;;4.60;;
29026;SDS011;16120;48.608;9.092;2022-10-16T06:06:41;83.30;;;4.40;;
29026;SDS011;16120;48.608;9.092;2022-10-16T06:10:37;74.40;;;3.87;;
29026;SDS011;16120;48.608;9.092;2022-10-16T06:14:33;83.50;;;4.70;;
29026;SDS011;16120;48.608;9.092;2022-10-16T06:18:28;75.47;;;4.15;;
29026;SDS011;16120;48.608;9.092;2022-10-16T06:22:23;103.27;;;5.40;;
29026;SDS011;16120;48.608;9.092;2022-10-16T06:26:21;78.37;;;4.47;;
29026;SDS011;16120;48.608;9.092;2022-10-16T06:30:16;74.27;;;4.37;;
29026;SDS011;16120;48.608;9.092;2022-10-16T06:34:11;78.25;;;4.60;;
29026;SDS011;16120;48.608;9.092;2022-10-16T06:38:06;75.90;;;4.57;;
29026;SDS011;16120;48.608;9.092;2022-10-16T06:42:03;79.40;;;4.70;;
29026;SDS011;16120;48.608;9.092;2022-10-16T06:45:59;79.40;;;5.20;;
29026;SDS011;16120;48.608;9.092;2022-10-16T06:49:54;78.47;;;5.10;;
29026;SDS011;16120;48.608;9.092;2022-10-16T06:53:50;77.63;;;4.20;;
29026;SDS011;16120;48.608;9.092;2022-10-16T06:57:47;77.07;;;4.27;;
29026;SDS011;16120;48.608;9.092;2022-10-16T07:01:43;75.70;;;3.90;;
29026;SDS011;16120;48.608;9.092;2022-10-16T07:05:38;80.57;;;4.00;;
29026;SDS011;16120;48.608;9.092;2022-10-16T07:09:33;79.20;;;4.10;;
29026;SDS011;16120;48.608;9.092;2022-10-16T07:13:30;75.90;;;4.07;;
29026;SDS011;16120;48.608;9.092;2022-10-16T07:17:25;76.13;;;3.90;;
29026;SDS011;16120;48.608;9.092;2022-10-16T07:21:20;77.80;;;4.03;;
29026;SDS011;16120;48.608;9.092;2022-10-16T07:25:16;76.13;;;3.80;;
29026;SDS011;16120;48.608;9.092;2022-10-16T07:29:13;74.27;;;3.47;;
29026;SDS011;16120;48.608;9.092;2022-10-16T07:33:09;75.87;;;3.80;;
29026;SDS011;16120;48.608;9.092;2022-10-16T07:37:04;73.57;;;3.50;;
29026;SDS011;16120;48.608;9.092;2022-10-16T07:40:59;74.10;;;3.60;;
29026;SDS011;16120;48.608;9.092;2022-10-16T07:44:56;74.17;;;3.43;;
29026;SDS011;16120;48.608;9.092;2022-10-16T07:48:52;77.70;;;3.73;;
29026;SDS011;16120;48.608;9.092;2022-10-16T07:52:47;80.37;;;3.70;;
29026;SDS011;16120;48.608;9.092;2022-10-16T07:56:42;73.70;;;3.77;;
29026;SDS011;16120;48.608;9.092;2022-10-16T08:00:39;74.00;;;3.70;;
29026;SDS011;16120;48.608;9.092;2022-10-16T08:04:34;75.00;;;3.80;;
29026;SDS011;16120;48.608;9.092;2022-10-16T08:08:29;73.28;;;3.50;;
29026;SDS011;16120;48.608;9.092;2022-10-16T08:12:25;72.43;;;3.30;;
29026;SDS011;16120;48.608;9.092;2022-10-16T08:16:21;78.65;;;4.03;;
29026;SDS011;16120;48.608;9.092;2022-10-16T08:20:16;74.10;;;4.40;;
29026;SDS011;16120;48.608;9.092;2022-10-16T08:24:11;77.80;;;3.80;;
29026;SDS011;16120;48.608;9.092;2022-10-16T08:28:07;76.30;;;3.93;;
29026;SDS011;16120;48.608;9.092;2022-10-16T08:32:04;73.70;;;3.37;;
29026;SDS011;16120;48.608;9.092;2022-10-16T08:36:00;75.70;;;4.50;;
29026;SDS011;16120;48.608;9.092;2022-10-16T08:39:55;79.80;;;3.43;;
29026;SDS011;16120;48.608;9.092;2022-10-16T08:43:55;75.40;;;3.77;;
29026;SDS011;16120;48.608;9.092;2022-10-16T08:47:58;78.20;;;3.70;;
29026;SDS011;16120;48.608;9.092;2022-10-16T08:51:55;72.97;;;3.50;;
29026;SDS011;16120;48.608;9.092;2022-10-16T08:55:51;75.47;;;3.90;;
29026;SDS011;16120;48.608;9.092;2022-10-16T08:59:46;73.50;;;3.83;;
29026;SDS011;16120;48.608;9.092;2022-10-16T09:03:48;73.00;;;3.60;;
29026;SDS011;16120;48.608;9.092;2022-10-16T09:07:49;74.10;;;4.00;;
29026;SDS011;16120;48.608;9.092;2022-10-16T09:11:51;77.53;;;3.67;;
29026;SDS011;16120;48.608;9.092;2022-10-16T09:15:48;76.60;;;3.87;;
29026;SDS011;16120;48.608;9.092;2022-10-16T09:19:49;77.50;;;4.10;;
29026;SDS011;16120;48.608;9.092;2022-10-16T09:23:46;74.30;;;3.40;;
29026;SDS011;16120;48.608;9.092;2022-10-16T09:27:42;74.17;;;3.40;;
29026;SDS011;16120;48.608;9.092;2022-10-16T09:31:39;74.00;;;3.57;;
29026;SDS011;16120;48.608;9.092;2022-10-16T09:35:37;80.73;;;3.83;;
29026;SDS011;16120;48.608;9.092;2022-10-16T09:39:43;73.60;;;3.93;;
29026;SDS011;16120;48.608;9.092;2022-10-16T09:43:39;73.47;;;3.27;;
29026;SDS011;16120;48.608;9.092;2022-10-16T09:47:36;75.20;;;3.33;;
29026;SDS011;16120;48.608;9.092;2022-10-16T09:51:36;75.00;;;3.60;;
29026;SDS011;16120;48.608;9.092;2022-10-16T09:55:31;82.37;;;3.30;;
29026;SDS011;16120;48.608;9.092;2022-10-16T09:59:27;75.00;;;3.63;;
29026;SDS011;16120;48.608;9.092;2022-10-16T10:03:30;72.55;;;3.70;;
29026;SDS011;16120;48.608;9.092;2022-10-16T10:07:30;72.97;;;4.03;;
29026;SDS011;16120;48.608;9.092;2022-10-16T10:11:42;73.77;;;3.77;;
29026;SDS011;16120;48.608;9.092;2022-10-16T10:15:41;73.77;;;3.80;;
29026;SDS011;16120;48.608;9.092;2022-10-16T10:19:37;70.93;;;3.10;;
29026;SDS011;16120;48.608;9.092;2022-10-16T10:23:34;73.87;;;3.40;;
29026;SDS011;16120;48.608;9.092;2022-10-16T10:27:32;76.07;;;3.73;;
29026;SDS011;16120;48.608;9.092;2022-10-16T10:31:31;72.83;;;3.40;;
29026;SDS011;16120;48.608;9.092;2022-10-16T10:35:28;74.03;;;3.97;;
29026;SDS011;16120;48.608;9.092;2022-10-16T10:39:30;72.27;;;3.43;;
29026;SDS011;16120;48.608;9.092;2022-10-16T10:43:31;75.13;;;3.30;;
29026;SDS011;16120;48.608;9.092;2022-10-16T10:47:36;73.27;;;3.13;;
29026;SDS011;16120;48.608;9.092;2022-10-16T10:51:36;72.27;;;3.40;;
29026;SDS011;16120;48.608;9.092;2022-10-16T10:55:39;76.37;;;3.60;;
29026;SDS011;16120;48.608;9.092;2022-10-16T11:03:50;71.10;;;3.23;;
29026;SDS011;16120;48.608;9.092;2022-10-16T11:07:51;72.07;;;3.43;;
29026;SDS011;16120;48.608;9.092;2022-10-16T11:11:49;73.63;;;3.30;;
29026;SDS011;16120;48.608;9.092;2022-10-16T11:15:47;73.60;;;3.10;;
29026;SDS011;16120;48.608;9.092;2022-10-16T11:19:44;71.90;;;3.37;;
29026;SDS011;16120;48.608;9.092;2022-10-16T11:23:42;70.13;;;3.00;;
29026;SDS011;16120;48.608;9.092;2022-10-16T11:27:41;75.70;;;3.67;;
29026;SDS011;16120;48.608;9.092;2022-10-16T11:31:42;72.70;;;3.60;;
29026;SDS011;16120;48.608;9.092;2022-10-16T11:35:41;72.43;;;3.67;;
29026;SDS011;16120;48.608;9.092;2022-10-16T11:39:38;70.60;;;3.50;;
29026;SDS011;16120;48.608;9.092;2022-10-16T11:43:37;72.30;;;3.20;;
29026;SDS011;16120;48.608;9.092;2022-10-16T11:47:33;72.00;;;3.20;;
29026;SDS011;16120;48.608;9.092;2022-10-16T11:51:31;73.37;;;3.17;;
29026;SDS011;16120;48.608;9.092;2022-10-16T11:55:29;73.63;;;3.10;;
29026;SDS011;16120;48.608;9.092;2022-10-16T11:59:29;76.13;;;3.43;;
29026;SDS011;16120;48.608;9.092;2022-10-16T12:03:27;72.47;;;3.33;;
29026;SDS011;16120;48.608;9.092;2022-10-16T12:07:23;70.97;;;3.07;;
29026;SDS011;16120;48.608;9.092;2022-10-16T12:11:32;71.80;;;3.20;;
29026;SDS011;16120;48.608;9.092;2022-10-16T12:15:30;76.20;;;3.40;;
29026;SDS011;16120;48.608;9.092;2022-10-16T12:19:26;69.97;;;3.07;;
29026;SDS011;16120;48.608;9.092;2022-10-16T12:23:22;75.50;;;3.10;;
29026;SDS011;16120;48.608;9.092;2022-10-16T12:27:21;71.70;;;3.50;;
29026;SDS011;16120;48.608;9.092;2022-10-16T12:31:19;70.27;;;3.10;;
29026;SDS011;16120;48.608;9.092;2022-10-16T12:35:17;71.50;;;3.10;;
29026;SDS011;16120;48.608;9.092;2022-10-16T12:39:17;70.97;;;3.13;;
29026;SDS011;16120;48.608;9.092;2022-10-16T12:43:34;71.50;;;3.27;;
29026;SDS011;16120;48.608;9.092;2022-10-16T12:47:38;70.20;;;3.10;;
29026;SDS011;16120;48.608;9.092;2022-10-16T12:51:34;70.50;;;3.47;;
29026;SDS011;16120;48.608;9.092;2022-10-16T12:55:32;71.60;;;3.07;;
29026;SDS011;16120;48.608;9.092;2022-10-16T12:59:32;69.43;;;3.27;;
29026;SDS011;16120;48.608;9.092;2022-10-16T13:03:44;70.77;;;3.40;;
29026;SDS011;16120;48.608;9.092;2022-10-16T13:07:46;70.30;;;3.20;;
29026;SDS011;16120;48.608;9.092;2022-10-16T13:11:57;75.43;;;3.60;;
29026;SDS011;16120;48.608;9.092;2022-10-16T13:15:59;69.67;;;3.23;;
29026;SDS011;16120;48.608;9.092;2022-10-16T13:20:00;73.10;;;3.40;;
29026;SDS011;16120;48.608;9.092;2022-10-16T13:23:59;69.40;;;3.00;;
29026;SDS011;16120;48.608;9.092;2022-10-16T13:27:59;68.83;;;2.70;;
29026;SDS011;16120;48.608;9.092;2022-10-16T13:31:54;73.30;;;3.37;;
29026;SDS011;16120;48.608;9.092;2022-10-16T13:35:52;70.70;;;3.13;;
29026;SDS011;16120;48.608;9.092;2022-10-16T13:39:47;70.17;;;3.13;;
29026;SDS011;16120;48.608;9.092;2022-10-16T13:43:43;71.70;;;3.30;;
29026;SDS011;16120;48.608;9.092;2022-10-16T13:47:39;71.10;;;3.13;;
29026;SDS011;16120;48.608;9.092;2022-10-16T13:51:36;69.37;;;3.13;;
29026;SDS011;16120;48.608;9.092;2022-10-16T13:55:31;69.37;;;3.43;;
29026;SDS011;16120;48.608;9.092;2022-10-16T13:59:27;70.40;;;3.47;;
29026;SDS011;16120;48.608;9.092;2022-10-16T14:03:27;75.90;;;3.90;;
29026;SDS011;16120;48.608;9.092;2022-10-16T14:07:25;69.90;;;3.40;;
29026;SDS011;16120;48.608;9.092;2022-10-16T14:11:20;73.13;;;3.27;;
29026;SDS011;16120;48.608;9.092;2022-10-16T14:15:16;69.90;;;3.23;;
29026;SDS011;16120;48.608;9.092;2022-10-16T14:19:13;72.40;;;3.80;;
29026;SDS011;16120;48.608;9.092;2022-10-16T14:23:20;70.27;;;3.43;;
29026;SDS011;16120;48.608;9.092;2022-10-16T14:27:24;70.67;;;3.50;;
29026;SDS011;16120;48.608;9.092;2022-10-16T14:31:28;73.40;;;3.60;;
29026;SDS011;16120;48.608;9.092;2022-10-16T14:35:24;76.20;;;4.03;;
29026;SDS011;16120;48.608;9.092;2022-10-16T14:39:21;71.20;;;4.00;;
29026;SDS011;16120;48.608;9.092;2022-10-16T14:43:19;70.57;;;3.50;;
29026;SDS011;16120;48.608;9.092;2022-10-16T14:47:15;71.30;;;3.47;;
29026;SDS011;16120;48.608;9.092;2022-10-16T14:51:12;70.20;;;3.20;;
29026;SDS011;16120;48.608;9.092;2022-10-16T14:55:09;70.47;;;3.43;;
29026;SDS011;16120;48.608;9.092;2022-10-16T14:59:12;70.70;;;3.50;;
29026;SDS011;16120;48.608;9.092;2022-10-16T15:03:08;77.17;;;3.70;;
29026;SDS011;16120;48.608;9.092;2022-10-16T15:07:03;78.47;;;3.90;;
29026;SDS011;16120;48.608;9.092;2022-10-16T15:11:00;79.67;;;3.50;;
29026;SDS011;16120;48.608;9.092;2022-10-16T15:14:55;73.40;;;3.80;;
29026;SDS011;16120;48.608;9.092;2022-10-16T15:18:50;84.30;;;4.03;;
29026;SDS011;16120;48.608;9.092;2022-10-16T15:22:46;73.10;;;3.50;;
29026;SDS011;16120;48.608;9.092;2022-10-16T15:26:43;72.97;;;4.10;;
29026;SDS011;16120;48.608;9.092;2022-10-16T15:30:38;88.00;;;4.17;;
29026;SDS011;16120;48.608;9.092;2022-10-16T15:34:34;72.20;;;3.87;;
29026;SDS011;16120;48.608;9.092;2022-10-16T15:38:29;72.90;;;3.70;;
29026;SDS011;16120;48.608;9.092;2022-10-16T15:42:26;76.90;;;4.00;;
29026;SDS011;16120;48.608;9.092;2022-10-16T15:46:21;78.93;;;4.13;;
29026;SDS011;16120;48.608;9.092;2022-10-16T15:50:17;80.37;;;3.90;;
29026;SDS011;16120;48.608;9.092;2022-10-16T15:54:12;79.70;;;3.83;;
29026;SDS011;16120;48.608;9.092;2022-10-16T15:58:09;88.63;;;4.33;;
29026;SDS011;16120;48.608;9.092;2022-10-16T16:02:04;90.73;;;4.40;;
29026;SDS011;16120;48.608;9.092;2022-10-16T16:06:03;83.53;;;4.00;;
29026;SDS011;16120;48.608;9.092;2022-10-16T16:09:58;75.47;;;4.00;;
29026;SDS011;16120;48.608;9.092;2022-10-16T16:13:55;78.10;;;4.43;;
29026;SDS011;16120;48.608;9.092;2022-10-16T16:17:51;85.37;;;4.07;;
29026;SDS011;16120;48.608;9.092;2022-10-16T16:21:46;83.80;;;4.03;;
29026;SDS011;16120;48.608;9.092;2022-10-16T16:25:42;90.90;;;4.43;;
29026;SDS011;16120;48.608;9.092;2022-10-16T16:29:38;78.97;;;4.90;;
29026;SDS011;16120;48.608;9.092;2022-10-16T16:33:34;77.97;;;4.00;;
29026;SDS011;16120;48.608;9.092;2022-10-16T16:37:29;80.07;;;3.93;;
29026;SDS011;16120;48.608;9.092;2022-10-16T16:41:25;79.67;;;4.23;;
29026;SDS011;16120;48.608;9.092;2022-10-16T16:45:22;79.57;;;4.20;;
29026;SDS011;16120;48.608;9.092;2022-10-16T16:49:17;88.37;;;4.47;;
29026;SDS011;16120;48.608;9.092;2022-10-16T16:53:12;76.07;;;3.80;;
29026;SDS011;16120;48.608;9.092;2022-10-16T16:57:07;86.03;;;4.28;;
29026;SDS011;16120;48.608;9.092;2022-10-16T17:01:04;80.77;;;3.77;;
29026;SDS011;16120;48.608;9.092;2022-10-16T17:04:59;88.67;;;4.60;;
29026;SDS011;16120;48.608;9.092;2022-10-16T17:08:55;81.10;;;4.80;;
29026;SDS011;16120;48.608;9.092;2022-10-16T17:12:50;90.23;;;4.87;;
29026;SDS011;16120;48.608;9.092;2022-10-16T17:16:47;90.53;;;4.63;;
29026;SDS011;16120;48.608;9.092;2022-10-16T17:20:42;84.47;;;4.20;;
29026;SDS011;16120;48.608;9.092;2022-10-16T17:24:37;79.20;;;4.40;;
29026;SDS011;16120;48.608;9.092;2022-10-16T17:28:33;76.50;;;4.23;;
29026;SDS011;16120;48.608;9.092;2022-10-16T17:32:30;82.43;;;4.77;;
29026;SDS011;16120;48.608;9.092;2022-10-16T17:36:25;79.50;;;4.30;;
29026;SDS011;16120;48.608;9.092;2022-10-16T17:40:20;90.73;;;7.90;;
29026;SDS011;16120;48.608;9.092;2022-10-16T17:44:16;80.80;;;5.80;;
29026;SDS011;16120;48.608;9.092;2022-10-16T17:48:12;92.73;;;5.90;;
29026;SDS011;16120;48.608;9.092;2022-10-16T17:52:08;81.37;;;5.00;;
29026;SDS011;16120;48.608;9.092;2022-10-16T17:56:04;87.10;;;5.80;;
29026;SDS011;16120;48.608;9.092;2022-10-16T17:59:59;95.30;;;5.30;;
29026;SDS011;16120;48.608;9.092;2022-10-16T18:03:57;83.80;;;5.20;;
29026;SDS011;16120;48.608;9.092;2022-10-16T18:07:52;84.83;;;4.70;;
29026;SDS011;16120;48.608;9.092;2022-10-16T18:11:48;78.60;;;4.57;;
29026;SDS011;16120;48.608;9.092;2022-10-16T18:15:43;80.30;;;5.03;;
29026;SDS011;16120;48.608;9.092;2022-10-16T18:19:39;82.70;;;5.40;;
29026;SDS011;16120;48.608;9.092;2022-10-16T18:23:35;81.23;;;4.57;;
29026;SDS011;16120;48.608;9.092;2022-10-16T18:27:31;91.43;;;5.47;;
29026;SDS011;16120;48.608;9.092;2022-10-16T18:31:26;88.93;;;5.43;;
29026;SDS011;16120;48.608;9.092;2022-10-16T18:35:23;81.60;;;5.10;;
29026;SDS011;16120;48.608;9.092;2022-10-16T18:39:18;81.40;;;5.07;;
29026;SDS011;16120;48.608;9.092;2022-10-16T18:43:13;75.15;;;5.20;;
29026;SDS011;16120;48.608;9.092;2022-10-16T18:47:08;83.93;;;4.85;;
29026;SDS011;16120;48.608;9.092;2022-10-16T18:51:09;93.30;;;5.40;;
29026;SDS011;16120;48.608;9.092;2022-10-16T18:55:05;77.70;;;4.40;;
29026;SDS011;16120;48.608;9.092;2022-10-16T18:59:01;93.50;;;5.17;;
29026;SDS011;16120;48.608;9.092;2022-10-16T19:02:57;100.70;;;4.93;;
29026;SDS011;16120;48.608;9.092;2022-10-16T19:06:53;86.53;;;5.37;;
29026;SDS011;16120;48.608;9.092;2022-10-16T19:10:48;80.20;;;6.17;;
29026;SDS011;16120;48.608;9.092;2022-10-16T19:14:46;87.20;;;6.50;;
29026;SDS011;16120;48.608;9.092;2022-10-16T19:18:41;87.27;;;5.07;;
29026;SDS011;16120;48.608;9.092;2022-10-16T19:22:38;83.50;;;4.60;;
29026;SDS011;16120;48.608;9.092;2022-10-16T19:26:33;100.80;;;5.93;;
29026;SDS011;16120;48.608;9.092;2022-10-16T19:30:28;90.60;;;5.67;;
29026;SDS011;16120;48.608;9.092;2022-10-16T19:34:24;85.93;;;5.90;;
29026;SDS011;16120;48.608;9.092;2022-10-16T19:38:20;87.43;;;8.75;;
29026;SDS011;16120;48.608;9.092;2022-10-16T19:42:15;154.07;;;22.10;;
29026;SDS011;16120;48.608;9.092;2022-10-16T19:46:11;125.17;;;15.40;;
29026;SDS011;16120;48.608;9.092;2022-10-16T19:50:07;96.87;;;6.10;;
29026;SDS011;16120;48.608;9.092;2022-10-16T19:54:09;86.13;;;4.53;;
29026;SDS011;16120;48.608;9.092;2022-10-16T19:58:04;93.13;;;4.70;;
29026;SDS011;16120;48.608;9.092;2022-10-16T20:02:00;94.87;;;6.50;;
29026;SDS011;16120;48.608;9.092;2022-10-16T20:05:55;81.73;;;4.90;;
29026;SDS011;16120;48.608;9.092;2022-10-16T20:09:52;90.93;;;5.00;;
29026;SDS011;16120;48.608;9.092;2022-10-16T20:13:47;92.60;;;5.27;;
29026;SDS011;16120;48.608;9.092;2022-10-16T20:17:43;87.57;;;5.63;;
29026;SDS011;16120;48.608;9.092;2022-10-16T20:21:38;84.40;;;4.93;;
29026;SDS011;16120;48.608;9.092;2022-10-16T20:25:35;83.00;;;5.37;;
29026;SDS011;16120;48.608;9.092;2022-10-16T20:29:30;87.77;;;4.33;;
29026;SDS011;16120;48.608;9.092;2022-10-16T20:33:26;84.97;;;4.75;;
29026;SDS011;16120;48.608;9.092;2022-10-16T20:37:21;78.82;;;4.43;;
29026;SDS011;16120;48.608;9.092;2022-10-16T20:41:18;79.38;;;5.10;;
29026;SDS011;16120;48.608;9.092;2022-10-16T20:45:13;83.80;;;5.50;;
29026;SDS011;16120;48.608;9.092;2022-10-16T20:49:08;88.53;;;5.60;;
29026;SDS011;16120;48.608;9.092;2022-10-16T20:53:04;81.60;;;4.95;;
29026;SDS011;16120;48.608;9.092;2022-10-16T20:57:01;77.77;;;5.90;;
29026;SDS011;16120;48.608;9.092;2022-10-16T21:01:02;86.87;;;6.60;;
29026;SDS011;16120;48.608;9.092;2022-10-16T21:04:58;80.40;;;5.20;;
29026;SDS011;16120;48.608;9.092;2022-10-16T21:08:53;75.67;;;4.57;;
29026;SDS011;16120;48.608;9.092;2022-10-16T21:12:52;76.47;;;4.85;;
29026;SDS011;16120;48.608;9.092;2022-10-16T21:16:48;80.03;;;5.20;;
29026;SDS011;16120;48.608;9.092;2022-10-16T21:20:43;81.60;;;5.23;;
29026;SDS011;16120;48.608;9.092;2022-10-16T21:24:38;80.80;;;5.07;;
29026;SDS011;16120;48.608;9.092;2022-10-16T21:28:35;83.00;;;5.03;;
29026;SDS011;16120;48.608;9.092;2022-10-16T21:32:30;78.83;;;5.20;;
29026;SDS011;16120;48.608;9.092;2022-10-16T21:36:26;80.27;;;5.03;;
29026;SDS011;16120;48.608;9.092;2022-10-16T21:40:22;81.90;;;5.30;;
29026;SDS011;16120;48.608;9.092;2022-10-16T21:44:18;87.70;;;5.03;;
29026;SDS011;16120;48.608;9.092;2022-10-16T21:48:14;82.43;;;5.00;;
29026;SDS011;16120;48.608;9.092;2022-10-16T21:52:09;74.57;;;4.40;;
29026;SDS011;16120;48.608;9.092;2022-10-16T21:56:04;77.87;;;5.23;;
29026;SDS011;16120;48.608;9.092;2022-10-16T22:00:08;83.60;;;8.50;;
29026;SDS011;16120;48.608;9.092;2022-10-16T22:04:04;89.87;;;7.03;;
29026;SDS011;16120;48.608;9.092;2022-10-16T22:07:59;84.70;;;6.53;;
29026;SDS011;16120;48.608;9.092;2022-10-16T22:11:54;80.60;;;5.80;;
29026;SDS011;16120;48.608;9.092;2022-10-16T22:15:52;82.73;;;5.50;;
29026;SDS011;16120;48.608;9.092;2022-10-16T22:19:47;79.90;;;5.80;;
29026;SDS011;16120;48.608;9.092;2022-10-16T22:23:42;91.73;;;7.20;;
29026;SDS011;16120;48.608;9.092;2022-10-16T22:27:37;84.63;;;6.27;;
29026;SDS011;16120;48.608;9.092;2022-10-16T22:31:35;92.53;;;6.30;;
29026;SDS011;16120;48.608;9.092;2022-10-16T22:35:30;80.90;;;6.70;;
29026;SDS011;16120;48.608;9.092;2022-10-16T22:39:25;92.30;;;6.93;;
29026;SDS011;16120;48.608;9.092;2022-10-16T22:43:21;82.73;;;6.27;;
29026;SDS011;16120;48.608;9.092;2022-10-16T22:47:17;78.53;;;6.00;;
29026;SDS011;16120;48.608;9.092;2022-10-16T22:51:13;79.23;;;6.03;;
29026;SDS011;16120;48.608;9.092;2022-10-16T22:55:08;84.57;;;6.27;;
29026;SDS011;16120;48.608;9.092;2022-10-16T22:59:03;87.80;;;6.67;;
29026;SDS011;16120;48.608;9.092;2022-10-16T23:03:00;83.53;;;6.07;;
29026;SDS011;16120;48.608;9.092;2022-10-16T23:06:55;80.77;;;5.70;;
29026;SDS011;16120;48.608;9.092;2022-10-16T23:10:51;79.07;;;5.53;;
29026;SDS011;16120;48.608;9.092;2022-10-16T23:14:46;78.60;;;5.47;;
29026;SDS011;16120;48.608;9.092;2022-10-16T23:18:43;78.90;;;5.87;;
29026;SDS011;16120;48.608;9.092;2022-10-16T23:22:38;78.00;;;5.83;;
29026;SDS011;16120;48.608;9.092;2022-10-16T23:26:34;78.83;;;5.80;;